createdAt,value
2023-03-28T00:02:27.818Z,17.30
2023-03-28T00:04:56.456Z,13.85
2023-03-28T00:07:25.205Z,15.43
2023-03-28T00:09:53.670Z,11.73
2023-03-28T00:12:22.620Z,12.25
2023-03-28T00:14:52.638Z,7.25
2023-03-28T00:17:21.295Z,11.75
2023-03-28T00:19:51.041Z,10.55
2023-03-28T00:22:20.434Z,13.73
2023-03-28T00:24:51.103Z,7.35
2023-03-28T00:27:19.719Z,8.88
2023-03-28T00:29:48.195Z,8.90
2023-03-28T00:32:18.146Z,16.38
2023-03-28T00:34:46.851Z,13.82
2023-03-28T00:37:17.824Z,11.10
2023-03-28T00:39:50.390Z,9.57
2023-03-28T00:42:19.782Z,11.48
2023-03-28T00:44:52.056Z,7.75
2023-03-28T00:47:33.817Z,12.65
2023-03-28T00:50:07.125Z,11.63
2023-03-28T00:52:41.269Z,8.23
2023-03-28T00:55:13.776Z,11.23
2023-03-28T00:57:42.902Z,15.13
2023-03-28T01:00:14.368Z,13.40
2023-03-28T01:02:51.221Z,12.43
2023-03-28T01:05:23.776Z,15.50
2023-03-28T01:07:56.112Z,17.08
2023-03-28T01:10:26.169Z,12.43
2023-03-28T01:12:58.155Z,12.75
2023-03-28T01:15:26.732Z,13.02
2023-03-28T01:17:58.151Z,10.48
2023-03-28T01:20:37.801Z,16.52
2023-03-28T01:23:42.123Z,13.35
2023-03-28T01:26:46.699Z,8.93
2023-03-28T01:30:04.632Z,11.40
2023-03-28T01:33:26.051Z,8.48
2023-03-28T01:36:33.855Z,18.13
2023-03-28T01:39:13.022Z,18.15
2023-03-28T01:41:48.774Z,9.02
2023-03-28T01:44:26.501Z,9.00
2023-03-28T01:47:01.832Z,9.02
2023-03-28T01:49:40.449Z,11.20
2023-03-28T01:52:15.860Z,6.25
2023-03-28T01:54:56.305Z,9.32
2023-03-28T01:57:31.282Z,6.13
2023-03-28T02:00:12.360Z,9.32
2023-03-28T02:02:49.569Z,6.18
2023-03-28T02:05:21.267Z,6.95
2023-03-28T02:07:52.991Z,6.45
2023-03-28T02:10:28.435Z,5.93
2023-03-28T02:13:00.854Z,3.65
2023-03-28T02:15:31.328Z,8.48
2023-03-28T02:18:04.011Z,4.75
2023-03-28T02:20:36.593Z,5.40
2023-03-28T02:23:10.559Z,3.53
2023-03-28T02:25:41.748Z,2.47
2023-03-28T02:28:13.057Z,1.85
2023-03-28T02:30:43.163Z,1.88
2023-03-28T02:33:38.161Z,2.70
2023-03-28T02:36:23.971Z,1.48
2023-03-28T02:39:03.676Z,2.90
2023-03-28T02:41:45.911Z,1.63
2023-03-28T02:44:50.580Z,3.15
2023-03-28T02:47:23.288Z,3.95
2023-03-28T02:50:03.374Z,5.32
2023-03-28T02:52:38.801Z,3.17
2023-03-28T02:55:18.304Z,2.83
2023-03-28T02:57:53.897Z,2.40
2023-03-28T03:00:23.178Z,2.92
2023-03-28T03:02:53.333Z,2.25
2023-03-28T03:05:23.144Z,2.78
2023-03-28T03:07:52.400Z,1.35
2023-03-28T03:10:22.261Z,4.18
2023-03-28T03:12:52.343Z,3.58
2023-03-28T03:15:21.206Z,3.78
2023-03-28T03:17:49.805Z,3.38
2023-03-28T03:20:19.207Z,5.40
2023-03-28T03:22:47.540Z,4.82
2023-03-28T03:25:16.310Z,3.35
2023-03-28T03:27:44.578Z,3.70
2023-03-28T03:30:15.405Z,5.28
2023-03-28T03:32:44.532Z,6.05
2023-03-28T03:35:13.168Z,4.18
2023-03-28T03:37:41.656Z,5.80
2023-03-28T03:40:11.518Z,4.95
2023-03-28T03:42:40.174Z,4.97
2023-03-28T03:45:10.387Z,7.38
2023-03-28T03:47:40.298Z,7.63
2023-03-28T03:50:10.100Z,6.43
2023-03-28T03:52:39.257Z,5.05
2023-03-28T03:55:08.326Z,8.43
2023-03-28T03:57:37.011Z,8.88
2023-03-28T04:00:11.415Z,5.40
2023-03-28T04:02:42.445Z,7.53
2023-03-28T04:05:11.317Z,8.50
2023-03-28T04:07:40.042Z,7.53
2023-03-28T04:10:09.473Z,6.30
2023-03-28T04:12:38.039Z,7.03
2023-03-28T04:15:07.863Z,10.57
2023-03-28T04:17:36.879Z,6.78
2023-03-28T04:20:14.295Z,6.47
2023-03-28T04:22:45.221Z,10.20
2023-03-28T04:25:15.240Z,7.28
2023-03-28T04:27:47.532Z,4.43
2023-03-28T04:30:18.127Z,5.38
2023-03-28T04:32:49.718Z,8.88
2023-03-28T04:35:23.798Z,3.65
2023-03-28T04:37:53.933Z,3.85
2023-03-28T04:40:22.971Z,5.32
2023-03-28T04:42:52.433Z,6.78
2023-03-28T04:45:21.031Z,8.77
2023-03-28T04:47:50.145Z,3.95
2023-03-28T04:50:19.102Z,5.53
2023-03-28T04:52:49.386Z,3.60
2023-03-28T04:55:17.743Z,3.55
2023-03-28T04:57:46.373Z,4.90
2023-03-28T05:00:17.370Z,7.88
2023-03-28T05:02:46.010Z,3.90
2023-03-28T05:05:14.984Z,3.63
2023-03-28T05:07:43.812Z,6.60
2023-03-28T05:10:14.265Z,6.07
2023-03-28T05:12:42.805Z,7.72
2023-03-28T05:15:21.780Z,6.95
2023-03-28T05:17:52.094Z,6.95
2023-03-28T05:20:21.467Z,3.80
2023-03-28T05:22:50.026Z,3.05
2023-03-28T05:25:20.749Z,5.32
2023-03-28T05:27:49.838Z,6.25
2023-03-28T05:30:18.766Z,6.63
2023-03-28T05:32:47.434Z,7.18
2023-03-28T05:35:17.551Z,5.53
2023-03-28T05:37:47.139Z,10.52
2023-03-28T05:40:16.979Z,6.82
2023-03-28T05:42:47.276Z,6.57
2023-03-28T05:45:15.954Z,5.22
2023-03-28T05:47:44.552Z,7.35
2023-03-28T05:50:13.324Z,7.45
2023-03-28T05:52:42.016Z,6.53
2023-03-28T05:55:11.047Z,6.28
2023-03-28T05:57:39.801Z,5.78
2023-03-28T06:00:12.727Z,7.18
2023-03-28T06:02:43.799Z,4.72
2023-03-28T06:05:14.300Z,5.07
2023-03-28T06:07:43.344Z,3.67
2023-03-28T06:10:13.366Z,3.67
2023-03-28T06:12:42.478Z,6.15
2023-03-28T06:15:15.004Z,4.35
2023-03-28T06:17:43.436Z,3.80
2023-03-28T06:20:12.328Z,6.15
2023-03-28T06:22:41.485Z,4.78
2023-03-28T06:25:11.676Z,7.25
2023-03-28T06:27:40.017Z,3.47
2023-03-28T06:30:10.315Z,3.40
2023-03-28T06:32:40.699Z,5.93
2023-03-28T06:35:10.871Z,5.38
2023-03-28T06:37:39.966Z,6.88
2023-03-28T06:40:11.711Z,5.97
2023-03-28T06:42:41.433Z,3.05
2023-03-28T06:45:10.923Z,4.85
2023-03-28T06:47:40.951Z,3.42
2023-03-28T06:50:10.297Z,2.97
2023-03-28T06:52:39.282Z,4.47
2023-03-28T06:55:08.272Z,4.90
2023-03-28T06:57:36.775Z,5.55
2023-03-28T07:00:07.530Z,7.30
2023-03-28T07:02:37.995Z,6.28
2023-03-28T07:05:08.741Z,7.72
2023-03-28T07:07:37.420Z,6.07
2023-03-28T07:10:06.816Z,5.32
2023-03-28T07:12:35.400Z,4.20
2023-03-28T07:15:03.965Z,6.72
2023-03-28T07:17:35.345Z,5.70
2023-03-28T07:20:04.484Z,6.30
2023-03-28T07:22:34.563Z,7.13
2023-03-28T07:25:02.948Z,3.90
2023-03-28T07:27:31.449Z,3.78
2023-03-28T07:30:00.391Z,3.60
2023-03-28T07:32:35.786Z,3.00
2023-03-28T07:35:11.620Z,3.20
2023-03-28T07:37:41.884Z,5.15
2023-03-28T07:40:12.811Z,3.38
2023-03-28T07:42:41.669Z,2.72
2023-03-28T07:45:11.073Z,3.97
2023-03-28T07:47:39.537Z,3.35
2023-03-28T07:50:09.164Z,2.33
2023-03-28T07:52:41.149Z,3.13
2023-03-28T07:55:11.545Z,9.18
2023-03-28T07:57:40.032Z,5.85
2023-03-28T08:00:13.524Z,4.97
2023-03-28T08:02:44.893Z,3.08
2023-03-28T08:05:14.080Z,3.63
2023-03-28T08:07:46.173Z,4.65
2023-03-28T08:10:16.398Z,3.67
2023-03-28T08:12:44.968Z,4.75
2023-03-28T08:15:13.449Z,3.53
2023-03-28T08:17:42.036Z,6.32
2023-03-28T08:20:12.170Z,4.95
2023-03-28T08:22:41.385Z,5.60
2023-03-28T08:25:10.683Z,3.65
2023-03-28T08:27:40.674Z,5.72
2023-03-28T08:30:10.916Z,2.72
2023-03-28T08:32:39.351Z,3.55
2023-03-28T08:35:08.624Z,5.88
2023-03-28T08:37:36.919Z,2.97
2023-03-28T08:40:11.075Z,2.88
2023-03-28T08:42:53.641Z,3.17
2023-03-28T08:45:42.927Z,4.65
2023-03-28T08:48:19.741Z,4.22
2023-03-28T08:50:51.776Z,4.68
2023-03-28T08:53:27.924Z,3.45
2023-03-28T08:55:58.173Z,2.70
2023-03-28T08:58:31.846Z,3.90
2023-03-28T09:01:00.810Z,2.05
2023-03-28T09:03:29.657Z,3.22
2023-03-28T09:06:07.874Z,4.85
2023-03-28T09:08:59.480Z,2.33
2023-03-28T09:11:42.215Z,1.83
2023-03-28T09:14:26.143Z,2.90
2023-03-28T09:17:10.410Z,2.47
2023-03-28T09:19:57.196Z,1.50
2023-03-28T09:22:36.335Z,1.40
2023-03-28T09:25:19.367Z,0.98
2023-03-28T09:27:56.413Z,1.15
2023-03-28T09:30:31.338Z,1.35
2023-03-28T09:33:03.562Z,1.15
2023-03-28T09:35:33.627Z,1.00
2023-03-28T09:38:06.545Z,0.80
2023-03-28T09:40:36.940Z,1.80
2023-03-28T09:43:17.222Z,1.42
2023-03-28T09:45:58.889Z,1.30
2023-03-28T09:48:31.930Z,2.42
2023-03-28T09:51:02.633Z,1.73
2023-03-28T09:53:33.483Z,1.15
2023-03-28T09:56:05.174Z,1.75
2023-03-28T09:58:50.747Z,0.50
2023-03-28T10:01:32.413Z,0.85
2023-03-28T10:04:01.536Z,0.70
2023-03-28T10:06:31.861Z,1.63
2023-03-28T10:09:19.756Z,0.40
2023-03-28T10:11:55.632Z,0.45
2023-03-28T10:14:32.417Z,0.95
2023-03-28T10:17:06.068Z,1.70
2023-03-28T10:19:37.378Z,3.90
2023-03-28T10:22:12.515Z,7.72
2023-03-28T10:24:41.630Z,10.82
2023-03-28T10:27:18.180Z,6.43
2023-03-28T10:29:48.553Z,1.08
2023-03-28T10:32:27.262Z,1.17
2023-03-28T10:35:04.235Z,1.27
2023-03-28T10:37:34.864Z,1.13
2023-03-28T10:40:08.239Z,0.93
2023-03-28T10:42:44.176Z,0.75
2023-03-28T10:45:24.134Z,1.15
2023-03-28T10:47:56.189Z,0.82
2023-03-28T10:50:31.008Z,0.75
2023-03-28T10:53:22.232Z,2.78
2023-03-28T10:56:06.262Z,3.20
2023-03-28T10:58:39.497Z,2.72
2023-03-28T11:01:17.947Z,4.25
2023-03-28T11:04:04.910Z,5.57
2023-03-28T11:06:43.310Z,4.35
2023-03-28T11:09:23.784Z,2.30
2023-03-28T11:12:03.846Z,2.38
2023-03-28T11:14:45.601Z,5.07
2023-03-28T11:17:21.529Z,1.40
2023-03-28T11:20:18.661Z,3.60
2023-03-28T11:23:05.608Z,2.30
2023-03-28T11:25:44.925Z,2.40
2023-03-28T11:28:23.247Z,2.50
2023-03-28T11:30:56.927Z,3.47
2023-03-28T11:33:31.623Z,2.03
2023-03-28T11:36:07.567Z,2.55
2023-03-28T11:38:43.689Z,2.95
2023-03-28T11:41:15.619Z,2.25
2023-03-28T11:43:51.125Z,2.33
2023-03-28T11:46:26.649Z,0.40
2023-03-28T11:49:03.888Z,0.35
2023-03-28T11:51:37.945Z,1.40
2023-03-28T11:54:12.848Z,0.63
2023-03-28T11:56:50.581Z,1.55
2023-03-28T11:59:25.047Z,0.50
2023-03-28T12:02:01.956Z,0.35
2023-03-28T12:04:39.395Z,0.63
2023-03-28T12:07:16.115Z,1.13
2023-03-28T12:09:59.136Z,0.55
2023-03-28T12:12:32.627Z,0.63
2023-03-28T12:15:07.644Z,5.38
2023-03-28T12:17:40.474Z,0.88
2023-03-28T12:20:18.314Z,0.90
2023-03-28T12:22:54.074Z,0.98
2023-03-28T12:25:31.365Z,1.42
2023-03-28T12:28:10.437Z,1.10
2023-03-28T12:30:45.755Z,0.88
2023-03-28T12:33:21.591Z,0.30
2023-03-28T12:35:57.905Z,0.30
2023-03-28T12:38:34.428Z,2.70
2023-03-28T12:41:06.215Z,3.50
2023-03-28T12:43:47.672Z,1.20
2023-03-28T12:46:21.417Z,0.93
2023-03-28T12:48:56.282Z,0.95
2023-03-28T12:51:31.726Z,1.92
2023-03-28T12:54:10.122Z,2.17
2023-03-28T12:56:39.401Z,1.00
2023-03-28T12:59:48.098Z,1.50
2023-03-28T13:02:19.691Z,1.05
2023-03-28T13:04:57.192Z,0.70
2023-03-28T13:07:30.228Z,0.95
2023-03-28T13:10:13.477Z,0.40
2023-03-28T13:13:03.374Z,3.33
2023-03-28T13:15:34.134Z,1.15
2023-03-28T13:18:30.208Z,5.53
2023-03-28T13:21:00.553Z,2.67
2023-03-28T13:23:47.183Z,1.52
2023-03-28T13:26:17.086Z,2.20
2023-03-28T13:28:48.059Z,0.65
2023-03-28T13:31:25.838Z,2.47
2023-03-28T13:33:58.834Z,2.85
2023-03-28T13:36:30.001Z,1.48
2023-03-28T13:39:23.641Z,4.22
2023-03-28T13:42:01.055Z,5.20
2023-03-28T13:44:41.284Z,2.88
2023-03-28T13:47:20.734Z,3.17
2023-03-28T13:49:54.123Z,2.30
2023-03-28T13:52:24.937Z,3.30
2023-03-28T13:54:55.599Z,3.72
2023-03-28T13:57:29.607Z,2.42
2023-03-28T14:00:00.960Z,4.00
2023-03-28T14:02:38.515Z,3.55
2023-03-28T14:05:21.245Z,7.05
2023-03-28T14:07:50.894Z,4.88
2023-03-28T14:10:29.315Z,2.63
2023-03-28T14:13:03.043Z,2.72
2023-03-28T14:15:36.472Z,3.20
2023-03-28T14:18:05.707Z,3.78
2023-03-28T14:20:36.303Z,4.32
2023-03-28T14:23:07.122Z,2.75
2023-03-28T14:25:37.594Z,4.70
2023-03-28T14:28:10.817Z,4.38
2023-03-28T14:30:42.594Z,6.25
2023-03-28T14:33:21.452Z,5.72
2023-03-28T14:36:00.584Z,4.70
2023-03-28T14:38:33.481Z,8.00
2023-03-28T14:41:15.223Z,5.35
2023-03-28T14:43:53.303Z,3.38
2023-03-28T14:46:26.036Z,3.97
2023-03-28T14:48:57.958Z,5.53
2023-03-28T14:51:27.302Z,3.70
2023-03-28T14:53:57.987Z,3.88
2023-03-28T14:56:29.282Z,4.18
2023-03-28T14:59:02.736Z,4.90
2023-03-28T15:01:34.251Z,5.82
2023-03-28T15:04:07.551Z,6.10
2023-03-28T15:06:39.669Z,4.53
2023-03-28T15:09:21.695Z,4.15
2023-03-28T15:11:50.055Z,4.72
2023-03-28T15:14:31.358Z,9.23
2023-03-28T15:17:00.628Z,6.30
2023-03-28T15:19:34.748Z,4.32
2023-03-28T15:22:06.854Z,5.55
2023-03-28T15:24:41.154Z,8.73
2023-03-28T15:27:21.488Z,7.20
2023-03-28T15:29:53.141Z,12.20
2023-03-28T15:32:22.218Z,6.45
2023-03-28T15:34:59.132Z,4.15
2023-03-28T15:37:28.614Z,4.90
2023-03-28T15:40:13.764Z,4.38
2023-03-28T15:42:42.606Z,9.00
2023-03-28T15:45:25.789Z,5.97
2023-03-28T15:47:56.309Z,9.25
2023-03-28T15:50:33.291Z,7.88
2023-03-28T15:53:05.889Z,8.00
2023-03-28T15:55:36.436Z,11.27
2023-03-28T15:58:06.856Z,5.60
2023-03-28T16:00:42.662Z,5.65
2023-03-28T16:03:34.739Z,6.82
2023-03-28T16:06:23.038Z,7.60
2023-03-28T16:09:14.573Z,8.20
2023-03-28T16:11:43.104Z,10.13
2023-03-28T16:14:17.040Z,9.35
2023-03-28T16:16:47.394Z,8.68
2023-03-28T16:19:21.195Z,6.00
2023-03-28T16:21:50.395Z,9.35
2023-03-28T16:24:19.959Z,11.45
2023-03-28T16:26:49.235Z,10.52
2023-03-28T16:29:18.315Z,12.88
2023-03-28T16:31:48.993Z,6.97
2023-03-28T16:34:17.620Z,8.23
2023-03-28T16:36:46.490Z,11.35
2023-03-28T16:39:15.074Z,10.38
2023-03-28T16:41:43.587Z,12.07
2023-03-28T16:44:12.179Z,12.02
2023-03-28T16:46:40.794Z,11.98
2023-03-28T16:49:11.243Z,10.77
2023-03-28T16:51:40.408Z,12.82
2023-03-28T16:54:10.392Z,13.57
2023-03-28T16:56:40.137Z,10.75
2023-03-28T16:59:08.708Z,12.68
2023-03-28T17:01:37.457Z,17.67
2023-03-28T17:04:11.700Z,14.43
2023-03-28T17:06:42.210Z,15.07
2023-03-28T17:09:10.652Z,19.95
2023-03-28T17:11:40.718Z,14.43
2023-03-28T17:14:09.960Z,15.57
2023-03-28T17:16:41.016Z,18.10
2023-03-28T17:19:09.581Z,19.15
2023-03-28T17:21:38.454Z,19.40
2023-03-28T17:24:11.717Z,21.30
2023-03-28T17:26:40.036Z,16.90
2023-03-28T17:29:10.357Z,15.80
2023-03-28T17:31:39.482Z,16.02
2023-03-28T17:34:08.486Z,22.45
2023-03-28T17:36:37.636Z,20.48
2023-03-28T17:39:07.639Z,18.02
2023-03-28T17:41:37.978Z,18.65
2023-03-28T17:44:09.314Z,22.60
2023-03-28T17:46:39.360Z,19.02
2023-03-28T17:49:08.548Z,28.85
2023-03-28T17:51:37.409Z,24.48
2023-03-28T17:54:12.226Z,15.95
2023-03-28T17:56:41.036Z,22.05
2023-03-28T17:59:09.572Z,22.48
2023-03-28T18:01:38.899Z,21.50
2023-03-28T18:04:08.335Z,23.15
2023-03-28T18:06:37.335Z,20.92
2023-03-28T18:09:07.942Z,21.92
2023-03-28T18:11:38.125Z,25.25
2023-03-28T18:14:08.818Z,22.60
2023-03-28T18:16:38.972Z,20.67
2023-03-28T18:19:09.540Z,22.20
2023-03-28T18:21:38.970Z,19.33
2023-03-28T18:24:09.626Z,23.45
2023-03-28T18:26:38.312Z,21.08
2023-03-28T18:29:06.982Z,22.85
2023-03-28T18:31:37.060Z,27.45
2023-03-28T18:34:05.873Z,23.60
2023-03-28T18:36:37.502Z,25.65
2023-03-28T18:39:08.466Z,23.13
2023-03-28T18:41:39.184Z,30.40
2023-03-28T18:44:08.244Z,24.27
2023-03-28T18:46:36.939Z,24.83
2023-03-28T18:49:06.745Z,19.05
2023-03-28T18:51:35.844Z,24.83
2023-03-28T18:54:04.419Z,20.42
2023-03-28T18:56:33.398Z,18.90
2023-03-28T18:59:04.430Z,31.92
2023-03-28T19:01:34.520Z,21.33
2023-03-28T19:04:03.432Z,21.27
2023-03-28T19:06:32.016Z,23.17
2023-03-28T19:09:00.622Z,24.25
2023-03-28T19:11:29.249Z,28.38
2023-03-28T19:13:57.569Z,26.83
2023-03-28T19:16:28.240Z,17.70
2023-03-28T19:18:57.464Z,29.52
2023-03-28T19:21:26.223Z,42.85
2023-03-28T19:23:55.114Z,29.40
2023-03-28T19:26:26.581Z,33.58
2023-03-28T19:28:55.109Z,35.47
2023-03-28T19:31:24.956Z,28.98
2023-03-28T19:33:54.940Z,33.67
2023-03-28T19:36:23.450Z,27.98
2023-03-28T19:38:51.854Z,28.83
2023-03-28T19:41:22.788Z,30.83
2023-03-28T19:43:52.600Z,36.67
2023-03-28T19:46:26.328Z,29.25
2023-03-28T19:49:01.659Z,29.65
2023-03-28T19:51:30.547Z,38.50
2023-03-28T19:53:59.048Z,28.50
2023-03-28T19:56:27.746Z,34.35
2023-03-28T19:58:56.702Z,34.58
2023-03-28T20:01:25.262Z,29.90
2023-03-28T20:03:53.861Z,31.83
2023-03-28T20:06:27.065Z,26.40
2023-03-28T20:08:55.926Z,32.80
2023-03-28T20:11:24.225Z,30.75
2023-03-28T20:13:52.626Z,30.35
2023-03-28T20:16:21.492Z,34.00
2023-03-28T20:18:50.106Z,38.78
2023-03-28T20:21:18.670Z,33.95
2023-03-28T20:23:48.741Z,32.55
2023-03-28T20:26:19.727Z,34.53
2023-03-28T20:28:50.086Z,27.02
2023-03-28T20:31:19.916Z,28.80
2023-03-28T20:33:48.325Z,35.05
2023-03-28T20:36:17.401Z,43.72
2023-03-28T20:38:45.838Z,26.58
2023-03-28T20:41:17.843Z,37.35
2023-03-28T20:43:48.177Z,39.20
2023-03-28T20:46:19.367Z,23.88
2023-03-28T20:48:52.401Z,37.22
2023-03-28T20:51:23.099Z,34.58
2023-03-28T20:53:55.118Z,38.70
2023-03-28T20:56:27.597Z,33.72
2023-03-28T20:58:58.419Z,31.88
2023-03-28T21:01:28.436Z,23.40
2023-03-28T21:04:00.265Z,31.73
2023-03-28T21:06:30.771Z,32.00
2023-03-28T21:09:01.974Z,29.75
2023-03-28T21:11:34.415Z,25.88
2023-03-28T21:14:03.202Z,22.58
2023-03-28T21:16:32.987Z,27.60
2023-03-28T21:19:02.880Z,26.70
2023-03-28T21:21:34.427Z,26.08
2023-03-28T21:24:05.039Z,21.17
2023-03-28T21:26:36.216Z,27.40
2023-03-28T21:29:05.041Z,21.83
2023-03-28T21:31:33.841Z,23.55
2023-03-28T21:34:02.779Z,24.25
2023-03-28T21:36:31.327Z,21.55
2023-03-28T21:38:59.799Z,19.38
2023-03-28T21:41:28.923Z,21.00
2023-03-28T21:43:59.328Z,14.40
2023-03-28T21:46:28.033Z,20.52
2023-03-28T21:48:56.986Z,23.42
2023-03-28T21:51:26.144Z,26.20
2023-03-28T21:53:55.823Z,20.05
2023-03-28T21:56:24.724Z,25.55
2023-03-28T21:58:53.285Z,24.48
2023-03-28T22:01:24.368Z,21.63
2023-03-28T22:03:52.778Z,22.88
2023-03-28T22:06:21.398Z,22.73
2023-03-28T22:08:52.868Z,21.35
2023-03-28T22:11:27.983Z,21.25
2023-03-28T22:14:01.588Z,21.77
2023-03-28T22:16:34.463Z,22.17
2023-03-28T22:19:03.469Z,20.77
2023-03-28T22:21:32.296Z,29.02
2023-03-28T22:24:02.937Z,28.73
2023-03-28T22:26:32.060Z,23.67
2023-03-28T22:29:00.672Z,20.50
2023-03-28T22:31:29.692Z,17.40
2023-03-28T22:33:59.819Z,28.40
2023-03-28T22:36:31.630Z,26.08
2023-03-28T22:39:00.110Z,15.27
2023-03-28T22:41:31.673Z,17.13
2023-03-28T22:44:00.339Z,31.67
2023-03-28T22:46:28.979Z,29.73
2023-03-28T22:49:04.720Z,23.08
2023-03-28T22:51:34.841Z,25.08
2023-03-28T22:54:04.443Z,24.65
2023-03-28T22:56:33.887Z,27.98
2023-03-28T22:59:02.593Z,25.70
2023-03-28T23:01:31.019Z,22.17
2023-03-28T23:03:59.601Z,23.58
2023-03-28T23:06:28.851Z,22.98
2023-03-28T23:08:59.536Z,19.15
2023-03-28T23:11:29.030Z,17.55
2023-03-28T23:13:57.353Z,17.05
2023-03-28T23:16:26.073Z,21.48
2023-03-28T23:18:55.160Z,18.85
2023-03-28T23:21:24.784Z,19.40
2023-03-28T23:23:54.359Z,18.30
2023-03-28T23:26:25.383Z,14.93
2023-03-28T23:28:54.003Z,21.90
2023-03-28T23:31:22.929Z,22.75
2023-03-28T23:33:51.596Z,22.30
2023-03-28T23:36:21.310Z,27.90
2023-03-28T23:38:51.692Z,18.95
2023-03-28T23:41:20.363Z,20.77
2023-03-28T23:43:50.925Z,21.33
2023-03-28T23:46:56.589Z,19.90
2023-03-28T23:49:25.135Z,22.20
2023-03-28T23:51:53.752Z,24.00
2023-03-28T23:54:22.522Z,26.17
2023-03-28T23:56:50.873Z,21.23
2023-03-28T23:59:21.097Z,20.95
